Terminal Aerodrome Forecast
Issued by NWS

Home | Current Version | Previous Version | Text Only | Print | Product List | Glossary On
Versions: 1 2 3 4 5 6 7 8 9 10 11 12 13 14 15 16 17 18 19 20
000
FTUS43 KDLH 031725
TAFHYR
TAF
KHYR 031725Z 0318/0418 25007KT P6SM SCT040
     FM032100 27010KT 6SM FU VCSH SCT030 BKN050
      TEMPO 0322/0324 4SM -TSRA BKN030CB
     FM040000 VRB04KT P6SM SCT060=

USA.gov is the U.S. government's official web portal to all federal, state and local government web resources and services.